Metar Cercanos

 

LEPA - Palma De Mallorc, Spain
Distance from station: ONO 38km
Actualización: Sat, 18-Sep-2021 6:30pm CEST
Parcialmente nuboso
Parcialmente nuboso
 Viento del SO
Viento: SO 17 km/h
Temperatura: 27°C
Indice Calor: 29°C
Rocío: 21°C
Humedad: 70%
Barómetro: 1013 hPa
Clouds: Parcialmente nuboso
Visibility: 10 km
Cloud details: Few Clouds 549 m
Few Clouds 762 m
Parcialmente nuboso 1097 m
2021/09/18 16:30 LEPA 181630Z 23009KT 9999 FEW018 FEW025TCU SCT036 27/21 Q1013 NOSIG
LEMH - Mahon/Menorca Is, Spain
Distance from station: ENE 105km
Actualización: Sat, 18-Sep-2021 6:30pm CEST
Few Clouds
Few Clouds
 Viento del SSO
Viento: SSO 17 km/h
Temperatura: 26°C
Rocío: 20°C
Humedad: 70%
Barómetro: 1013 hPa
Clouds: Few Clouds
Visibility: 10 km
Cloud details: Few Clouds 610 m
2021/09/18 16:30 LEMH 181630Z 21009KT 180V250 9999 FEW020 26/20 Q1013
 
LEIB - Ibiza/Es Codola, Spain
Distance from station: OSO 165km
Actualización: Sat, 18-Sep-2021 6:30pm CEST
Few Clouds
Few Clouds
 Viento del SSO
Viento: SSO 20 km/h
Temperatura: 26°C
Rocío: 21°C
Humedad: 74%
Barómetro: 1012 hPa
Clouds: Few Clouds
Visibility: 10 km
Cloud details: Few Clouds 549 m
2021/09/18 16:30 LEIB 181630Z 21011KT 170V250 9999 FEW018 26/21 Q1012 NOSIG
LEBL - Barcelona Airpor, Spain
Distance from station: NNO 225km
Actualización: Sat, 18-Sep-2021 6:30pm CEST
Few Clouds
Few Clouds
 Viento del N
Viento: N 7 km/h
Temperatura: 22°C
Rocío: 19°C
Humedad: 83%
Barómetro: 1011 hPa
Clouds: Few Clouds
Visibility: 10 km
Cloud details: Few Clouds 610 m
Few Clouds 762 m
2021/09/18 16:30 LEBL 181630Z 36004KT 9999 FEW020 FEW025TCU 22/19 Q1011 TEMPO 3000 TSRA FEW025CB
 
LEVC - Valencia (civ/Mi, Spain
Distance from station: NO 188km
Actualización: Sat, 18-Sep-2021 6:30pm CEST
Despejado
Despejado
 Viento del ESE
Viento: ESE 15 km/h
Temperatura: 29°C
Indice Calor: 29°C
Rocío: 16°C
Humedad: 45%
Barómetro: 1010 hPa
Resumen: Despejado
Visibility: greater than 10 km
2021/09/18 16:30 LEVC 181630Z 12008KT 090V150 CAVOK 29/16 Q1010 NOSIG
LEGE - Gerona/Costa Bra, Spain
Distance from station: N 276km
Actualización: Sat, 18-Sep-2021 6:30pm CEST
Nearby thunderstorm, Muy nuboso
Nearby thunderstorm, Muy nuboso
 Viento del SSO
Viento: SSO 9 km/h
Temperatura: 23°C
Rocío: 19°C
Humedad: 78%
Barómetro: 1012 hPa
Resumen: Nearby Thunderstorm
Clouds: Muy nuboso
Visibility: 10 km
Cloud details: Few Clouds 762 m
Muy nuboso 914 m
2021/09/18 16:30 LEGE 181630Z 20005KT 170V230 9999 VCTS FEW025CB BKN030 23/19 Q1012
 
LEAL - Alicante/El Alte, Spain
Distance from station: OSO 344km
Actualización: Sat, 18-Sep-2021 6:30pm CEST
Despejado
Despejado
 Viento del S
Viento: S 19 km/h
Temperatura: 27°C
Indice Calor: 29°C
Rocío: 20°C
Humedad: 66%
Barómetro: 1012 hPa
Resumen: Despejado
Visibility: greater than 10 km
2021/09/18 16:30 LEAL 181630Z 17010KT 130V210 CAVOK 27/20 Q1012 NOSIG
LEAM - Almeria Airport, Spain
Distance from station: SSO 56km
Actualización: Sat, 18-Sep-2021 6:30pm CEST
Few Clouds
Few Clouds
 Viento del SSO
Viento: SSO 19 km/h
Temperatura: 25°C
Rocío: 21°C
Humedad: 79%
Barómetro: 1012 hPa
Clouds: Few Clouds
Visibility: 10 km
Cloud details: Few Clouds 610 m
2021/09/18 16:30 LEAM 181630Z 21010KT 170V240 9999 FEW020 25/21 Q1012
 
LEZG - Zaragoza (mil/Ci, Spain
Distance from station: NO 431km
Actualización: Sat, 18-Sep-2021 6:30pm CEST
Parcialmente nuboso
Parcialmente nuboso
 Viento del ONO
Viento: ONO 30 km/h
Temperatura: 22°C
Rocío: 13°C
Humedad: 57%
Barómetro: 1015 hPa
Clouds: Parcialmente nuboso
Visibility: 10 km
Cloud details: Few Clouds 1524 m
Parcialmente nuboso 2438 m
2021/09/18 16:30 LEZG 181630Z 30016KT 9999 FEW050 SCT080 22/13 Q1015
LEMD - Madrid/Barajas, Spain
Distance from station: ONO 234km
Actualización: Sat, 18-Sep-2021 6:30pm CEST
Few Clouds
Few Clouds
 Viento del O
Viento: O 22 km/h
Temperatura: 26°C
Rocío: 7°C
Humedad: 30%
Barómetro: 1015 hPa
Clouds: Few Clouds
Visibility: 10 km
Cloud details: Few Clouds 1981 m
2021/09/18 16:30 LEMD 181630Z 28012KT 9999 FEW065 26/07 Q1015 NOSIG
 
LEGR - Granada Airport, Spain
Distance from station: OSO 62km
Actualización: Sat, 18-Sep-2021 6:30pm CEST
Few Clouds
Few Clouds
 Viento del O
Viento: O 24 km/h
Temperatura: 29°C
Rocío: 10°C
Humedad: 31%
Barómetro: 1015 hPa
Clouds: Few Clouds
Visibility: 10 km
Cloud details: Few Clouds 1829 m
2021/09/18 16:30 LEGR 181630Z 27013KT 250V320 9999 FEW060 29/10 Q1015
LEMG - Malaga (civ/Mil), Spain
Distance from station: OSO 227km
Actualización: Sat, 18-Sep-2021 6:30pm CEST
Few Clouds
Few Clouds
 Viento del N
Viento: N 15 km/h
Temperatura: 29°C
Indice Calor: 31°C
Rocío: 20°C
Humedad: 58%
Barómetro: 1012 hPa
Clouds: Few Clouds
Visibility: 10 km
Cloud details: Few Clouds 1524 m
2021/09/18 16:30 LEMG 181630Z 01008KT 290V060 9999 FEW050 29/20 Q1012 NOSIG
 
LEZL - Sevilla (civ/Mil, Spain
Distance from station: S 318km
Actualización: Sat, 18-Sep-2021 6:30pm CEST
Despejado
Despejado
 Viento del OSO
Viento: OSO 15 km/h
Temperatura: 30°C
Rocío: 11°C
Humedad: 31%
Barómetro: 1013 hPa
Resumen: Despejado
Visibility: greater than 10 km
2021/09/18 16:30 LEZL 181630Z 25008KT 200V290 CAVOK 30/11 Q1013 NOSIG
LEVT - Vitoria, Spain
Distance from station: NO 226km
Actualización: Sat, 18-Sep-2021 6:30pm CEST
Parcialmente nuboso
Parcialmente nuboso
 Viento del NNE
Viento: NNE 19 km/h
Temperatura: 18°C
Rocío: 11°C
Humedad: 64%
Barómetro: 1018 hPa
Clouds: Parcialmente nuboso
Visibility: 10 km
Cloud details: Few Clouds 1219 m
Parcialmente nuboso 2134 m
2021/09/18 16:30 LEVT 181630Z 02010KT 340V060 9999 FEW040 SCT070 18/11 Q1018
 
LEBB - Bilbao/Sondica, Spain
Distance from station: NNO 235km
Actualización: Sat, 18-Sep-2021 6:30pm CEST
Few Clouds
Few Clouds
 Viento del ONO
Viento: ONO 22 km/h
Temperatura: 20°C
Rocío: 14°C
Humedad: 69%
Barómetro: 1018 hPa
Clouds: Few Clouds
Visibility: 10 km
Cloud details: Few Clouds 1372 m
2021/09/18 16:30 LEBB 181630Z 30012KT 270V340 9999 FEW045 20/14 Q1018 NOSIG
LESO - San Sebastian/Fu, Spain
Distance from station: N 231km
Actualización: Sat, 18-Sep-2021 6:30pm CEST
Parcialmente nuboso
Parcialmente nuboso
 Viento del ONO
Viento: ONO 9 km/h
Temperatura: 20°C
Rocío: 14°C
Humedad: 69%
Barómetro: 1018 hPa
Clouds: Parcialmente nuboso
Visibility: 10 km
Cloud details: Few Clouds 1067 m
Parcialmente nuboso 1829 m
2021/09/18 16:30 LESO 181630Z 30005KT 200V340 9999 FEW035 SCT060 20/14 Q1018
 
LEVD - Valladolid(Mil/C, Spain
Distance from station: ONO 239km
Actualización: Sat, 18-Sep-2021 6:30pm CEST
Despejado
Despejado
 Viento del NO
Viento: NO 19 km/h
Temperatura: 20°C
Rocío: 3°C
Humedad: 33%
Barómetro: 1018 hPa
Resumen: Despejado
Visibility: greater than 10 km
2021/09/18 16:30 LEVD 181630Z 31010KT 280V360 CAVOK 20/03 Q1018
LESA - Salamanca (civ/M, Spain
Distance from station: ONO 349km
Actualización: Sat, 18-Sep-2021 6:30pm CEST
Few Clouds
Few Clouds
 Viento del varies
Viento: varies 4 km/h
Temperatura: 22°C
Rocío: 7°C
Humedad: 38%
Barómetro: 1018 hPa
Clouds: Few Clouds
Visibility: 10 km
Cloud details: Few Clouds 1219 m
2021/09/18 16:30 LESA 181630Z VRB02KT 9999 FEW040 22/07 Q1018
 
LEXJ - Santander/Paraya, Spain
Distance from station: NNO 247km
Actualización: Sat, 18-Sep-2021 6:30pm CEST
Few Clouds
Few Clouds
 Viento del ONO
Viento: ONO 26 km/h
Temperatura: 20°C
Rocío: 14°C
Humedad: 69%
Barómetro: 1018 hPa
Clouds: Few Clouds
Visibility: 10 km
Cloud details: Few Clouds 853 m
2021/09/18 16:30 LEXJ 181630Z 29014KT 260V330 9999 FEW028TCU 20/14 Q1018
LEAS - Asturias/Aviles, Spain
Distance from station: NO 214km
Actualización: Sat, 18-Sep-2021 6:30pm CEST
Few Clouds
Few Clouds
 Viento del O
Viento: O 22 km/h
Temperatura: 18°C
Rocío: 13°C
Humedad: 73%
Barómetro: 1019 hPa
Clouds: Few Clouds
Visibility: 10 km
Cloud details: Few Clouds 1189 m
2021/09/18 16:30 LEAS 181630Z 28012KT 240V310 9999 FEW039TCU 18/13 Q1019 NOSIG
 
LECO - La Coruna/Alvedr, Spain
Distance from station: ONO 222km
Actualización: Sat, 18-Sep-2021 6:30pm CEST
Few Clouds
Few Clouds
 Viento del NO
Viento: NO 9 km/h
Temperatura: 19°C
Rocío: 13°C
Humedad: 68%
Barómetro: 1021 hPa
Clouds: Few Clouds
Visibility: 10 km
Cloud details: Few Clouds 853 m
2021/09/18 16:30 LECO 181630Z 31005KT 240V010 9999 FEW028 19/13 Q1021 NOSIG
LEVX - Vigo/Peinador, Spain
Distance from station: O 214km
Actualización: Sat, 18-Sep-2021 6:30pm CEST
Muy nuboso
Muy nuboso
 Viento del NO
Viento: NO 6 km/h
Temperatura: 19°C
Rocío: 14°C
Humedad: 73%
Barómetro: 1020 hPa
Clouds: Muy nuboso
Visibility: 10 km
Cloud details: Parcialmente nuboso 914 m
Muy nuboso 1372 m
2021/09/18 16:30 LEVX 181630Z 31003KT 270V040 9999 SCT030 BKN045 19/14 Q1020 NOSIG